Time;durP1;ratioP1;P1;durP2;ratioP2;P2;SDS_P1;SDS_P2;PMS_P1;PMS_P2;Temp;Humidity;BMP_temperature;BMP_pressure;BME280_temperature;BME280_humidity;BME280_pressure;Samples;Min_cycle;Max_cycle;Signal;HPM_P1;HPM_P2
2023/09/07 00:03:09;;;;;;;1.13;1.03;;;;;;;21.26;59.96;96922.84;10456942;28;20040;-26
2023/09/07 00:08:09;;;;;;;3.80;1.17;;;;;;;21.22;59.92;96920.34;10456320;28;20029;-25
2023/09/07 00:13:10;;;;;;;1.30;1.20;;;;;;;21.26;60.09;96925.38;10455962;28;20033;-25
2023/09/07 00:18:10;;;;;;;1.40;1.30;;;;;;;21.26;59.92;96917.75;10455797;28;20503;-26
2023/09/07 00:23:11;;;;;;;1.80;1.30;;;;;;;21.26;60.09;96912.66;10456994;28;20029;-25
2023/09/07 00:28:12;;;;;;;1.10;1.00;;;;;;;21.27;60.08;96914.34;10455661;28;20037;-25
2023/09/07 00:33:12;;;;;;;1.30;1.17;;;;;;;21.25;60.07;96908.44;10454885;28;20041;-25
2023/09/07 00:38:13;;;;;;;1.07;0.90;;;;;;;21.25;59.96;96913.53;10454230;28;20045;-25
2023/09/07 00:43:13;;;;;;;1.53;1.10;;;;;;;21.25;60.04;96910.97;10458062;28;20049;-25
2023/09/07 00:48:15;;;;;;;1.05;0.95;;;;;;;21.25;60.04;96910.97;10457593;28;20090;-25
2023/09/07 00:53:17;;;;;;;1.38;1.02;;;;;;;21.24;59.97;96898.25;10454427;28;20513;-28
2023/09/07 00:58:19;;;;;;;1.23;1.13;;;;;;;21.22;59.92;96905.88;10458333;28;20534;-25
2023/09/07 01:03:19;;;;;;;1.00;1.00;;;;;;;21.24;59.98;96911.81;10459346;28;20036;-25
2023/09/07 01:08:25;;;;;;;0.87;0.87;;;;;;;21.24;59.74;96908.44;10459224;28;20033;-25
2023/09/07 01:13:26;;;;;;;;;;;;;;;21.24;59.98;96906.72;10455450;28;20311;-25
2023/09/07 01:18:26;;;;;;;1.10;0.80;;;;;;;21.23;59.99;96902.47;10452292;28;19955;-25
2023/09/07 01:23:27;;;;;;;1.38;0.80;;;;;;;21.23;59.89;96899.94;10461432;28;20040;-25
2023/09/07 01:28:27;;;;;;;1.27;1.10;;;;;;;21.23;59.85;96894.84;10455356;28;20406;-26
2023/09/07 01:33:28;;;;;;;0.98;0.88;;;;;;;21.23;59.95;96881.28;10467625;28;20116;-25
2023/09/07 01:38:28;;;;;;;1.07;1.07;;;;;;;21.23;59.80;96887.19;10451909;28;20041;-25
2023/09/07 01:43:28;;;;;;;2.47;1.00;;;;;;;21.25;59.99;96880.41;10451833;28;20078;-26
2023/09/07 01:48:29;;;;;;;1.00;0.90;;;;;;;21.24;59.78;96886.34;10455508;28;20352;-25
2023/09/07 01:53:29;;;;;;;1.10;1.00;;;;;;;21.25;59.70;96884.66;10454426;28;20028;-25
2023/09/07 01:58:29;;;;;;;1.40;1.10;;;;;;;21.22;59.87;96880.41;10463108;28;20032;-25
2023/09/07 02:03:30;;;;;;;1.13;0.70;;;;;;;21.23;59.74;96882.09;10472479;28;20040;-25
2023/09/07 02:08:30;;;;;;;1.08;0.98;;;;;;;21.24;59.75;96881.25;10476168;28;20450;-25
2023/09/07 02:13:31;;;;;;;1.10;1.00;;;;;;;21.24;59.75;96868.50;10470363;28;20509;-26
2023/09/07 02:18:32;;;;;;;1.20;1.10;;;;;;;21.24;59.76;96881.25;10467487;28;20275;-25
2023/09/07 02:23:33;;;;;;;1.23;0.80;;;;;;;21.23;59.82;96871.09;10482759;28;20388;-25
2023/09/07 02:28:33;;;;;;;1.10;1.00;;;;;;;21.24;59.91;96881.25;10463379;28;20502;-25
2023/09/07 02:33:35;;;;;;;3.27;1.00;;;;;;;21.23;59.70;96877.00;10479381;28;20333;-26
2023/09/07 02:38:35;;;;;;;1.50;0.77;;;;;;;21.23;59.70;96873.63;10467454;28;20298;-25
2023/09/07 02:43:36;;;;;;;0.98;0.70;;;;;;;21.23;59.82;96869.38;10464336;28;20036;-25
2023/09/07 02:48:36;;;;;;;0.83;0.83;;;;;;;21.24;59.84;96880.41;10458126;28;20045;-25
2023/09/07 02:53:37;;;;;;;0.93;0.80;;;;;;;21.24;59.70;96872.78;10480320;28;20683;-25
2023/09/07 02:58:37;;;;;;;0.87;0.70;;;;;;;21.25;59.77;96872.78;10469619;28;20043;-25
2023/09/07 03:03:41;;;;;;;1.88;1.13;;;;;;;21.24;59.90;96873.59;10459132;28;20295;-25
2023/09/07 03:08:43;;;;;;;1.77;1.67;;;;;;;21.24;59.70;96868.50;10455976;28;20059;-25
2023/09/07 03:13:43;;;;;;;2.00;1.67;;;;;;;21.25;59.82;96867.69;10478329;28;20025;-25
2023/09/07 03:18:44;;;;;;;2.13;1.42;;;;;;;21.25;59.67;96866.81;10476294;28;20129;-25
2023/09/07 03:23:45;;;;;;;2.38;1.15;;;;;;;21.25;59.67;96862.59;10475348;28;20491;-25
2023/09/07 03:28:47;;;;;;;2.08;1.05;;;;;;;21.23;59.31;96866.81;10474008;28;20098;-25
2023/09/07 03:33:49;;;;;;;0.80;0.80;;;;;;;21.23;59.69;96871.91;10454328;28;20029;-25
2023/09/07 03:38:49;;;;;;;0.73;0.73;;;;;;;21.22;59.98;96865.13;10473446;28;20090;-25
2023/09/07 03:43:50;;;;;;;1.77;0.90;;;;;;;21.23;59.82;96871.09;10479819;28;20397;-25
2023/09/07 03:48:53;;;;;;;0.90;0.70;;;;;;;21.23;59.34;96871.91;10452779;28;20020;-25
2023/09/07 03:53:54;;;;;;;1.10;1.00;;;;;;;21.23;59.64;96871.91;10455839;28;20660;-25
2023/09/07 03:58:54;;;;;;;1.10;1.00;;;;;;;21.24;59.75;96877.88;10477776;28;20033;-25
2023/09/07 04:03:54;;;;;;;1.53;0.90;;;;;;;21.23;59.82;96871.91;10485369;28;20024;-25
2023/09/07 04:08:55;;;;;;;1.10;1.00;;;;;;;21.24;59.81;96873.59;10466547;28;20051;-25
2023/09/07 04:13:55;;;;;;;1.83;1.67;;;;;;;21.26;59.97;96877.00;10469873;28;20086;-25
2023/09/07 04:18:56;;;;;;;4.13;2.35;;;;;;;21.31;59.50;96880.34;10455695;28;20103;-25
2023/09/07 04:23:57;;;;;;;3.28;2.80;;;;;;;21.34;59.32;96879.47;10480290;28;20521;-25
2023/09/07 04:28:57;;;;;;;2.88;2.67;;;;;;;21.34;59.42;96872.69;10462669;28;20037;-26
2023/09/07 04:33:58;;;;;;;2.42;2.22;;;;;;;21.32;59.24;96871.00;10467054;28;20025;-27
2023/09/07 04:38:59;;;;;;;3.78;1.90;;;;;;;21.35;59.84;96876.91;10487474;28;20095;-25
2023/09/07 04:43:59;;;;;;;4.05;2.55;;;;;;;21.27;59.19;96877.84;10464306;28;20513;-26
2023/09/07 04:48:59;;;;;;;8.35;2.20;;;;;;;21.22;59.70;96880.41;10457043;28;20402;-26
2023/09/07 04:54:00;;;;;;;4.27;3.23;;;;;;;21.25;59.60;96879.56;10467531;28;20584;-25
2023/09/07 04:59:00;;;;;;;4.03;2.70;;;;;;;21.26;59.61;96884.66;10460311;28;20295;-25
2023/09/07 05:04:03;;;;;;;2.70;2.42;;;;;;;21.25;59.44;96888.06;10468483;28;20029;-26
2023/09/07 05:09:04;;;;;;;2.83;1.80;;;;;;;21.21;59.13;96893.19;10456384;28;20033;-25
2023/09/07 05:14:04;;;;;;;2.50;2.30;;;;;;;21.21;59.36;96883.81;10471010;28;20032;-27
2023/09/07 05:19:05;;;;;;;1.92;1.73;;;;;;;21.23;59.35;96892.28;10458143;28;20029;-25
2023/09/07 05:24:06;;;;;;;1.60;1.40;;;;;;;21.10;59.84;96887.31;10471436;28;20074;-25
2023/09/07 05:29:06;;;;;;;1.98;1.40;;;;;;;21.12;59.59;96906.81;10460828;28;20036;-25
2023/09/07 05:34:07;;;;;;;1.90;1.40;;;;;;;21.11;59.60;96906.81;10476118;28;20029;-25
2023/09/07 05:39:07;;;;;;;4.00;1.50;;;;;;;21.08;59.48;96910.25;10462505;28;20295;-25
2023/09/07 05:44:08;;;;;;;2.70;2.50;;;;;;;21.12;59.00;96906.81;10469877;28;20086;-25
2023/09/07 05:49:08;;;;;;;2.60;2.40;;;;;;;21.16;59.00;96905.09;10467194;28;20025;-26
2023/09/07 05:54:09;;;;;;;5.40;2.80;;;;;;;21.18;59.06;96906.78;10477670;28;20302;-26
2023/09/07 05:59:10;;;;;;;3.28;2.60;;;;;;;21.18;59.00;96909.31;10474236;28;20033;-25
2023/09/07 06:04:10;;;;;;;3.17;2.67;;;;;;;21.20;58.94;96907.59;10447046;28;20033;-26
2023/09/07 06:09:12;;;;;;;5.10;2.78;;;;;;;21.23;58.94;96909.28;10480028;28;20036;-25
2023/09/07 06:14:12;;;;;;;3.22;2.80;;;;;;;21.22;59.09;96908.44;10464011;28;20059;-25
2023/09/07 06:19:13;;;;;;;3.53;2.53;;;;;;;21.24;59.17;96904.16;10464110;28;20032;-25
2023/09/07 06:24:14;;;;;;;3.20;2.88;;;;;;;21.24;59.52;96898.25;10463503;28;20486;-25
2023/09/07 06:29:15;;;;;;;4.07;2.63;;;;;;;21.24;59.33;96904.16;10462521;28;20048;-26
2023/09/07 06:34:16;;;;;;;3.58;2.75;;;;;;;21.29;59.51;96902.44;10459704;28;20433;-25
2023/09/07 06:39:16;;;;;;;4.72;3.03;;;;;;;21.33;59.00;96903.25;10457943;28;20170;-25
2023/09/07 06:44:17;;;;;;;4.38;3.20;;;;;;;21.26;59.09;96899.06;10473024;28;20032;-26
2023/09/07 06:49:19;;;;;;;4.65;2.60;;;;;;;21.28;59.49;96899.88;10463118;28;20298;-25
2023/09/07 06:54:19;;;;;;;4.80;2.50;;;;;;;21.32;59.52;96899.84;10470539;28;20040;-25
2023/09/07 06:59:20;;;;;;;4.07;2.90;;;;;;;21.38;59.75;96910.00;10470631;28;20035;-26
2023/09/07 07:04:20;;;;;;;4.25;3.28;;;;;;;21.42;59.11;96919.31;10463034;28;20384;-25
2023/09/07 07:09:21;;;;;;;3.45;3.13;;;;;;;21.36;59.35;96913.41;10464624;28;20028;-25
2023/09/07 07:14:21;;;;;;;3.70;2.33;;;;;;;21.30;59.43;96914.31;10462485;28;20025;-25
2023/09/07 07:19:22;;;;;;;4.22;2.45;;;;;;;21.28;59.44;96910.94;10455651;28;20490;-25
2023/09/07 07:24:23;;;;;;;4.95;2.90;;;;;;;21.29;59.07;96911.78;10472885;28;20045;-25
2023/09/07 07:29:24;;;;;;;4.15;3.13;;;;;;;21.29;59.36;96914.34;10458629;28;20447;-25
2023/09/07 07:34:25;;;;;;;7.47;3.17;;;;;;;21.35;60.70;96919.38;10461161;28;20029;-25
2023/09/07 07:39:26;;;;;;;5.75;3.63;;;;;;;21.32;60.35;96917.69;10477819;28;20087;-25
2023/09/07 07:44:26;;;;;;;3.67;3.20;;;;;;;21.30;59.84;96908.38;10470388;28;20040;-26
2023/09/07 07:49:27;;;;;;;5.35;3.13;;;;;;;21.27;59.53;96914.34;10469766;28;20793;-25
2023/09/07 07:54:29;;;;;;;5.82;3.50;;;;;;;21.28;59.33;96910.94;10471384;28;20055;-25
2023/09/07 07:59:30;;;;;;;5.20;3.65;;;;;;;21.26;59.61;96917.75;10477727;28;20035;-25
2023/09/07 08:04:32;;;;;;;6.05;3.15;;;;;;;21.27;59.53;96914.34;10476218;28;20029;-25
2023/09/07 08:09:33;;;;;;;4.07;3.05;;;;;;;21.28;59.83;96918.56;10462975;28;20029;-26
2023/09/07 08:14:34;;;;;;;7.22;4.50;;;;;;;21.28;59.93;96921.13;10464897;28;20037;-25
2023/09/07 08:19:38;;;;;;;5.05;3.67;;;;;;;21.28;59.93;96926.22;10470014;28;20036;-26
2023/09/07 08:24:40;;;;;;;6.60;4.20;;;;;;;21.28;60.08;96930.44;10469811;28;20047;-25
2023/09/07 08:29:40;;;;;;;8.02;3.90;;;;;;;21.27;59.88;96928.75;10467724;28;20098;-25
2023/09/07 08:34:41;;;;;;;6.47;4.50;;;;;;;21.29;60.07;96927.91;10460935;28;20567;-25
2023/09/07 08:39:42;;;;;;;19.98;4.00;;;;;;;21.26;60.67;96927.94;10460031;28;20120;-25
2023/09/07 08:44:46;;;;;;;17.83;3.77;;;;;;;21.41;61.19;96930.34;10465772;28;20438;-25
2023/09/07 08:49:47;;;;;;;11.35;3.08;;;;;;;21.46;60.23;96915.06;10457040;28;20286;-25
2023/09/07 08:54:48;;;;;;;15.07;3.10;;;;;;;21.49;63.10;96920.94;10458188;28;20040;-25
2023/09/07 08:59:49;;;;;;;8.70;2.90;;;;;;;21.56;63.01;96927.66;10455761;28;20044;-25
2023/09/07 09:04:50;;;;;;;9.23;3.72;;;;;;;21.46;63.01;96926.06;10453546;28;20041;-25
2023/09/07 09:09:50;;;;;;;13.52;3.47;;;;;;;21.40;62.48;96925.28;10460473;28;20036;-27
2023/09/07 09:14:52;;;;;;;5.63;3.83;;;;;;;21.37;61.87;96931.25;10462344;28;20040;-25
2023/09/07 09:19:52;;;;;;;5.80;3.58;;;;;;;21.36;61.60;96937.19;10454424;28;20029;-25
2023/09/07 09:24:53;;;;;;;5.20;3.53;;;;;;;21.37;61.63;96928.69;10454331;28;20522;-26
2023/09/07 09:29:53;;;;;;;6.57;3.60;;;;;;;21.34;61.78;96926.19;10462157;28;20495;-27
2023/09/07 09:34:54;;;;;;;6.63;3.45;;;;;;;21.35;62.12;96924.47;10457797;28;20037;-25
2023/09/07 09:39:56;;;;;;;5.18;3.88;;;;;;;21.34;61.48;96917.69;10455333;28;20032;-26
2023/09/07 09:44:58;;;;;;;5.30;4.20;;;;;;;21.35;61.48;96921.91;10465121;28;20387;-25
2023/09/07 09:50:06;;;;;;;5.03;3.95;;;;;;;21.34;61.42;96916.00;10449817;28;20052;-25
2023/09/07 09:55:08;;;;;;;4.93;3.58;;;;;;;21.35;61.23;96906.63;10460137;28;20424;-25
2023/09/07 10:00:42;;;;;;;3.75;3.33;;;;;;;21.33;61.23;96900.72;10454195;28;20170;-26
2023/09/07 10:05:36;;;;;;;5.82;4.00;;;;;;;21.33;61.10;96898.16;10454839;28;20464;-25
2023/09/07 10:10:36;;;;;;;5.50;3.63;;;;;;;21.33;61.15;96888.84;10453411;28;20113;-25
2023/09/07 10:15:38;;;;;;;4.43;3.20;;;;;;;21.33;61.08;96888.84;10447219;28;20051;-26
2023/09/07 10:20:57;;;;;;;4.57;3.72;;;;;;;21.32;60.86;96888.84;10454528;28;20048;-24
2023/09/07 10:25:58;;;;;;;5.47;3.83;;;;;;;21.34;61.04;96885.44;10453034;28;20040;-25
2023/09/07 10:31:13;;;;;;;5.10;3.53;;;;;;;21.33;61.58;96876.09;10459518;28;20055;-26
2023/09/07 10:36:24;;;;;;;7.20;3.67;;;;;;;21.34;61.71;96889.66;10460215;28;20588;-25
2023/09/07 10:41:24;;;;;;;6.32;3.47;;;;;;;21.27;61.66;96873.59;10454483;28;20040;-25
2023/09/07 10:46:25;;;;;;;3.67;3.37;;;;;;;21.32;61.11;96879.47;10466638;28;20502;-25
2023/09/07 10:51:26;;;;;;;5.95;3.08;;;;;;;21.33;60.78;96877.78;10455167;28;20036;-25
2023/09/07 10:56:26;;;;;;;4.75;3.88;;;;;;;21.32;60.69;96866.75;10455284;28;20025;-25
2023/09/07 11:01:27;;;;;;;4.50;3.10;;;;;;;21.32;60.74;96871.84;10468593;28;20035;-25
2023/09/07 11:06:27;;;;;;;6.75;4.85;;;;;;;21.33;60.65;96865.06;10451526;28;20809;-25
2023/09/07 11:11:28;;;;;;;5.97;3.75;;;;;;;21.32;60.63;96861.66;10449207;28;20456;-25
2023/09/07 11:16:29;;;;;;;4.30;3.50;;;;;;;21.33;60.94;96863.38;10450148;28;20407;-25
2023/09/07 11:21:30;;;;;;;9.27;3.70;;;;;;;21.33;60.77;96863.38;10459989;28;20295;-25
2023/09/07 11:26:44;;;;;;;5.03;3.92;;;;;;;21.35;60.94;96855.69;10459042;28;20029;-25
2023/09/07 11:31:45;;;;;;;5.80;3.78;;;;;;;21.36;60.88;96854.81;10448592;28;20039;-26
2023/09/07 11:36:46;;;;;;;4.03;3.13;;;;;;;21.35;60.84;96853.13;10466027;28;20047;-25
2023/09/07 11:41:46;;;;;;;4.38;3.97;;;;;;;21.34;60.82;96848.91;10467443;28;20470;-25
2023/09/07 11:46:47;;;;;;;4.80;3.83;;;;;;;21.33;60.72;96845.53;10456351;28;20041;-25
2023/09/07 11:51:47;;;;;;;4.73;4.00;;;;;;;21.36;60.77;96849.72;10457296;28;20029;-26
2023/09/07 11:56:48;;;;;;;5.00;3.63;;;;;;;21.36;61.40;96840.41;10457707;28;20033;-25
2023/09/07 12:01:48;;;;;;;4.83;3.90;;;;;;;21.34;60.99;96842.13;10448554;28;20630;-25
2023/09/07 12:06:51;;;;;;;7.67;4.53;;;;;;;21.36;61.33;96837.84;10455560;28;20294;-25
2023/09/07 12:11:51;;;;;;;4.82;4.10;;;;;;;21.35;60.26;96846.34;10448187;28;20037;-26
2023/09/07 12:16:52;;;;;;;4.20;3.47;;;;;;;21.35;61.03;96830.22;10453481;28;20037;-26
2023/09/07 12:21:52;;;;;;;4.57;3.60;;;;;;;21.36;60.77;96831.91;10465421;28;20287;-25
2023/09/07 12:26:53;;;;;;;4.10;3.70;;;;;;;21.36;60.72;96826.81;10457059;28;20074;-26
2023/09/07 12:31:54;;;;;;;5.20;4.05;;;;;;;21.37;61.27;96829.34;10459826;28;20299;-25
2023/09/07 12:36:54;;;;;;;4.80;4.30;;;;;;;21.37;60.86;96820.84;10461083;28;20045;-25
2023/09/07 12:41:54;;;;;;;4.07;3.27;;;;;;;21.35;60.69;96825.97;10454504;28;20048;-26
2023/09/07 12:46:55;;;;;;;6.53;4.10;;;;;;;21.38;61.52;96818.31;10464812;28;20029;-25
2023/09/07 12:51:56;;;;;;;4.80;4.30;;;;;;;21.39;61.11;96822.53;10462372;28;20170;-25
2023/09/07 12:56:56;;;;;;;5.00;3.20;;;;;;;21.39;61.12;96819.16;10462757;28;20040;-25
2023/09/07 13:01:57;;;;;;;7.53;4.70;;;;;;;21.39;61.83;96817.44;10462346;28;20108;-26
2023/09/07 13:06:57;;;;;;;4.95;4.22;;;;;;;21.41;61.83;96815.72;10462482;28;20789;-26
2023/09/07 13:11:57;;;;;;;6.23;4.93;;;;;;;21.40;61.93;96816.56;10452495;28;20036;-25
2023/09/07 13:16:58;;;;;;;4.40;3.60;;;;;;;21.38;61.13;96815.75;10466969;28;20025;-25
2023/09/07 13:21:58;;;;;;;4.73;4.33;;;;;;;21.38;60.93;96805.56;10471551;28;20033;-25
2023/09/07 13:26:59;;;;;;;6.65;4.05;;;;;;;21.39;61.35;96801.34;10457343;28;20282;-25
2023/09/07 13:31:59;;;;;;;6.57;4.10;;;;;;;21.38;61.35;96797.09;10474059;28;20029;-25
2023/09/07 13:37:00;;;;;;;5.15;4.65;;;;;;;21.36;61.30;96792.00;10463867;28;20028;-25
2023/09/07 13:42:00;;;;;;;4.70;4.30;;;;;;;21.40;61.54;96793.66;10453309;28;20025;-25
2023/09/07 13:47:00;;;;;;;5.03;4.47;;;;;;;21.39;61.50;96791.16;10460797;28;20040;-26
2023/09/07 13:52:01;;;;;;;5.40;4.63;;;;;;;21.40;60.96;96793.66;10452985;28;20065;-25
2023/09/07 13:57:01;;;;;;;4.60;4.20;;;;;;;21.39;61.70;96797.06;10475108;28;20361;-26
2023/09/07 14:02:02;;;;;;;5.05;3.78;;;;;;;21.40;61.59;96793.66;10451472;28;20407;-25
2023/09/07 14:07:02;;;;;;;4.80;4.10;;;;;;;21.40;61.33;96785.19;10455463;28;20552;-24
2023/09/07 14:12:03;;;;;;;4.20;3.90;;;;;;;21.41;61.41;96792.78;10459932;28;20033;-25
2023/09/07 14:17:04;;;;;;;4.80;4.30;;;;;;;21.40;61.54;96793.66;10455637;28;20044;-26
2023/09/07 14:22:04;;;;;;;6.07;4.65;;;;;;;21.40;61.03;96787.72;10464070;28;20044;-25
2023/09/07 14:27:04;;;;;;;4.40;3.90;;;;;;;21.40;61.07;96793.66;10459886;28;20568;-26
2023/09/07 14:32:05;;;;;;;4.13;3.72;;;;;;;21.40;61.12;96798.75;10450890;28;20279;-25
2023/09/07 14:37:05;;;;;;;4.82;4.30;;;;;;;21.40;61.04;96803.00;10454674;28;20480;-25
2023/09/07 14:42:11;;;;;;;5.88;4.10;;;;;;;21.41;61.47;96800.44;10456453;28;20167;-25
2023/09/07 14:47:11;;;;;;;5.00;4.50;;;;;;;21.40;60.97;96796.19;10458317;28;20084;-25
2023/09/07 14:52:12;;;;;;;5.33;4.23;;;;;;;21.42;62.07;96802.16;10471630;28;20077;-25
2023/09/07 14:57:12;;;;;;;4.45;4.05;;;;;;;21.42;61.24;96799.59;10470872;28;20025;-26
2023/09/07 15:02:12;;;;;;;4.20;3.80;;;;;;;21.41;61.03;96784.31;10457928;28;20033;-25
2023/09/07 15:07:13;;;;;;;4.50;4.10;;;;;;;21.39;61.11;96791.16;10452298;28;20045;-25
2023/09/07 15:12:13;;;;;;;4.87;4.40;;;;;;;21.42;61.30;96793.66;10450239;28;20052;-25
2023/09/07 15:17:15;;;;;;;4.63;4.00;;;;;;;21.41;61.05;96790.25;10457483;28;20040;-25
2023/09/07 15:22:15;;;;;;;4.40;4.00;;;;;;;21.41;61.00;96790.25;10454259;28;20029;-25
2023/09/07 15:27:16;;;;;;;4.03;3.73;;;;;;;21.42;61.46;96791.97;10459264;28;20041;-26
2023/09/07 15:32:16;;;;;;;4.60;4.20;;;;;;;21.36;61.09;96776.72;10448794;28;20044;-25
2023/09/07 15:37:16;;;;;;;4.37;3.67;;;;;;;21.41;61.25;96780.06;10461847;28;20040;-25
2023/09/07 15:42:17;;;;;;;4.32;3.97;;;;;;;21.41;61.08;96785.16;10449642;28;20043;-25
2023/09/07 15:47:17;;;;;;;4.60;4.10;;;;;;;21.41;61.26;96780.06;10457255;28;20035;-26
2023/09/07 15:52:19;;;;;;;4.07;3.67;;;;;;;21.42;61.08;96788.56;10448909;28;20025;-24
2023/09/07 15:57:19;;;;;;;5.72;4.38;;;;;;;21.42;60.87;96786.00;10461167;28;20103;-26
2023/09/07 16:02:20;;;;;;;4.30;3.83;;;;;;;21.42;60.96;96791.09;10467731;28;20249;-25
2023/09/07 16:07:20;;;;;;;4.63;4.23;;;;;;;21.42;61.31;96786.88;10461697;28;20295;-25
2023/09/07 16:12:20;;;;;;;5.10;4.60;;;;;;;21.42;61.05;96791.09;10460305;28;20296;-25
2023/09/07 16:17:23;;;;;;;4.90;4.47;;;;;;;21.43;61.44;96787.69;10458603;28;20267;-25
2023/09/07 16:22:23;;;;;;;4.88;4.47;;;;;;;21.42;61.58;96786.00;10470432;28;20787;-26
2023/09/07 16:27:24;;;;;;;4.77;3.83;;;;;;;21.42;61.09;96781.75;10462848;28;20028;-25
2023/09/07 16:32:24;;;;;;;5.23;4.20;;;;;;;21.41;61.03;96782.59;10459806;28;20275;-25
2023/09/07 16:37:26;;;;;;;5.37;4.07;;;;;;;21.41;61.25;96782.59;10468532;28;20279;-26
2023/09/07 16:42:26;;;;;;;4.38;3.97;;;;;;;21.40;60.81;96786.00;10457948;28;20049;-25
2023/09/07 16:47:29;;;;;;;6.23;4.33;;;;;;;21.41;61.64;96790.25;10463247;28;20063;-25
2023/09/07 16:52:31;;;;;;;4.38;3.78;;;;;;;21.41;60.94;96795.34;10465786;28;20299;-26
2023/09/07 16:57:34;;;;;;;4.00;3.70;;;;;;;21.40;61.06;96793.66;10463451;28;20025;-25
2023/09/07 17:02:34;;;;;;;4.10;3.75;;;;;;;21.41;60.93;96792.78;10460986;28;20040;-26
2023/09/07 17:07:35;;;;;;;4.63;4.20;;;;;;;21.41;61.04;96795.34;10467058;28;20086;-25
2023/09/07 17:12:35;;;;;;;4.80;4.30;;;;;;;21.41;61.30;96797.88;10477476;28;20091;-25
2023/09/07 17:17:36;;;;;;;4.73;3.77;;;;;;;21.41;60.88;96795.34;10465190;28;20331;-26
2023/09/07 17:22:36;;;;;;;3.17;2.85;;;;;;;21.40;60.95;96797.91;10460750;28;20060;-25
2023/09/07 17:27:36;;;;;;;3.67;3.37;;;;;;;21.41;62.81;96802.97;10462069;28;20037;-27
2023/09/07 17:32:37;;;;;;;2.80;2.50;;;;;;;21.40;60.95;96803.84;10472662;28;20310;-25
2023/09/07 17:37:39;;;;;;;2.53;2.33;;;;;;;21.40;60.91;96808.94;10449173;28;20502;-27
2023/09/07 17:42:41;;;;;;;4.07;3.22;;;;;;;21.41;61.10;96815.72;10458253;28;20060;-25
2023/09/07 17:47:41;;;;;;;5.40;3.72;;;;;;;21.41;60.95;96818.25;10463537;28;20093;-26
2023/09/07 17:52:42;;;;;;;5.22;2.60;;;;;;;21.42;61.07;96816.56;10457120;28;20029;-25
2023/09/07 17:57:42;;;;;;;4.23;3.83;;;;;;;21.41;60.85;96818.25;10472519;28;20032;-25
2023/09/07 18:02:42;;;;;;;3.67;3.00;;;;;;;21.44;63.00;96828.44;10467099;28;20045;-25
2023/09/07 18:07:43;;;;;;;3.65;2.83;;;;;;;21.45;61.92;96827.56;10465008;28;20548;-25
2023/09/07 18:12:43;;;;;;;4.40;3.57;;;;;;;21.40;61.63;96828.47;10455418;28;20498;-25
2023/09/07 18:17:44;;;;;;;6.67;3.93;;;;;;;21.43;61.26;96829.31;10457058;28;20033;-25
2023/09/07 18:22:44;;;;;;;4.32;3.95;;;;;;;21.42;61.16;96837.81;10455434;28;20048;-25
2023/09/07 18:27:45;;;;;;;3.93;3.53;;;;;;;21.41;61.24;96843.72;10456374;28;20040;-26
2023/09/07 18:32:47;;;;;;;5.45;3.35;;;;;;;21.42;60.99;96853.09;10463873;28;20040;-25
2023/09/07 18:37:48;;;;;;;3.95;2.70;;;;;;;21.41;64.66;96855.63;10463465;28;20028;-26
2023/09/07 18:42:48;;;;;;;5.00;2.97;;;;;;;21.42;61.96;96858.19;10455422;28;20051;-25
2023/09/07 18:47:49;;;;;;;9.48;3.10;;;;;;;21.43;61.56;96859.00;10453180;28;20039;-26
2023/09/07 18:52:50;;;;;;;5.63;3.50;;;;;;;21.42;61.50;96849.69;10457496;28;20037;-25
2023/09/07 18:57:51;;;;;;;3.90;2.80;;;;;;;21.43;61.33;96853.91;10453928;28;20045;-25
2023/09/07 19:02:52;;;;;;;6.63;3.87;;;;;;;21.42;61.33;96850.53;10460372;28;20028;-25
2023/09/07 19:07:52;;;;;;;6.67;3.53;;;;;;;21.41;61.09;96856.47;10457875;28;20102;-25
2023/09/07 19:12:53;;;;;;;7.03;4.10;;;;;;;21.41;61.55;96856.47;10462887;28;20137;-26
2023/09/07 19:17:53;;;;;;;5.32;2.60;;;;;;;21.35;61.41;96846.34;10463539;28;20109;-25
2023/09/07 19:22:53;;;;;;;3.17;2.23;;;;;;;21.40;60.65;96856.50;10461613;28;20102;-25
2023/09/07 19:27:54;;;;;;;5.87;3.17;;;;;;;21.40;61.19;96854.78;10462921;28;20383;-25
2023/09/07 19:32:55;;;;;;;5.30;2.97;;;;;;;21.41;62.02;96856.47;10468507;28;20040;-25
2023/09/07 19:37:55;;;;;;;4.13;2.38;;;;;;;21.41;60.96;96856.47;10463316;28;20531;-25
2023/09/07 19:42:56;;;;;;;3.10;2.80;;;;;;;21.42;61.08;96855.63;10463301;28;20033;-26
2023/09/07 19:47:56;;;;;;;3.80;3.27;;;;;;;21.43;60.92;96864.09;10461350;28;20291;-25
2023/09/07 19:52:56;;;;;;;8.13;3.70;;;;;;;21.43;61.05;96856.47;10470621;28;20041;-25
2023/09/07 19:57:57;;;;;;;5.50;3.17;;;;;;;21.42;60.82;96865.81;10462407;28;20041;-25
2023/09/07 20:02:57;;;;;;;8.65;3.13;;;;;;;21.42;60.86;96864.97;10460487;28;20037;-25
2023/09/07 20:07:58;;;;;;;7.40;3.47;;;;;;;21.41;60.85;96866.66;10469712;28;20036;-25
2023/09/07 20:12:58;;;;;;;5.47;2.30;;;;;;;21.43;61.85;96870.06;10464996;28;20047;-25
2023/09/07 20:17:59;;;;;;;3.77;2.20;;;;;;;21.48;61.80;96872.56;10464187;28;20040;-25
2023/09/07 20:22:59;;;;;;;3.20;2.63;;;;;;;21.45;61.57;96863.25;10476774;28;20029;-25
2023/09/07 20:28:00;;;;;;;5.70;3.63;;;;;;;21.45;61.54;96862.38;10470953;28;20037;-25
2023/09/07 20:33:01;;;;;;;5.37;4.03;;;;;;;21.45;61.35;96868.34;10476208;28;20031;-26
2023/09/07 20:38:03;;;;;;;3.20;2.90;;;;;;;21.41;61.48;96861.56;10482407;28;20032;-25
2023/09/07 20:43:06;;;;;;;5.07;2.80;;;;;;;21.44;61.27;96871.75;10466922;28;20037;-25
2023/09/07 20:48:07;;;;;;;3.88;2.75;;;;;;;21.44;61.17;96861.56;10469262;28;20396;-25
2023/09/07 20:53:09;;;;;;;3.97;3.40;;;;;;;21.45;61.07;96853.06;10464667;28;20036;-24
2023/09/07 20:58:10;;;;;;;6.45;3.03;;;;;;;21.36;64.27;96854.81;10462643;28;20042;-25
2023/09/07 21:03:10;;;;;;;7.70;2.83;;;;;;;21.48;62.89;96860.66;10473873;28;20025;-25
2023/09/07 21:08:11;;;;;;;3.97;2.75;;;;;;;21.48;62.54;96858.09;10471478;28;20299;-26
2023/09/07 21:13:12;;;;;;;4.20;3.60;;;;;;;21.46;62.03;96862.38;10477608;28;20461;-25
2023/09/07 21:18:12;;;;;;;5.47;3.55;;;;;;;21.45;61.89;96857.28;10469896;28;20063;-26
2023/09/07 21:23:13;;;;;;;4.57;3.47;;;;;;;21.41;61.43;96856.47;10453624;28;20513;-26
2023/09/07 21:28:14;;;;;;;5.05;3.38;;;;;;;21.44;61.45;96869.19;10473966;28;20028;-25
2023/09/07 21:33:14;;;;;;;3.15;2.85;;;;;;;21.40;61.51;96859.88;10463138;28;20033;-26
2023/09/07 21:38:15;;;;;;;3.50;3.20;;;;;;;21.44;61.46;96870.88;10466413;28;20394;-25
2023/09/07 21:43:15;;;;;;;5.47;2.97;;;;;;;21.45;61.61;96870.88;10457152;28;20478;-25
2023/09/07 21:48:15;;;;;;;4.03;3.73;;;;;;;21.45;61.65;96868.34;10462238;28;20279;-25
2023/09/07 21:53:16;;;;;;;4.43;3.78;;;;;;;21.48;61.56;96867.47;10464451;28;20029;-25
2023/09/07 21:58:16;;;;;;;4.53;4.00;;;;;;;21.47;61.64;96865.78;10455826;28;20031;-25
2023/09/07 22:03:17;;;;;;;4.50;4.10;;;;;;;21.47;61.48;96866.59;10452754;28;20321;-25
2023/09/07 22:08:17;;;;;;;4.43;4.03;;;;;;;21.45;61.56;96868.34;10461027;28;20298;-25
2023/09/07 22:13:17;;;;;;;7.23;4.63;;;;;;;21.47;61.63;96864.06;10451009;28;20364;-24
2023/09/07 22:18:20;;;;;;;6.20;4.37;;;;;;;21.47;61.49;96863.25;10451416;28;20283;-25
2023/09/07 22:23:20;;;;;;;5.25;3.10;;;;;;;21.44;61.23;96861.56;10464500;28;20322;-25
2023/09/07 22:28:21;;;;;;;3.13;2.83;;;;;;;21.43;61.06;96857.31;10456254;28;20078;-25
2023/09/07 22:33:21;;;;;;;3.60;2.10;;;;;;;21.42;61.12;96860.72;10468062;28;20035;-25
2023/09/07 22:38:22;;;;;;;3.07;1.83;;;;;;;21.42;61.16;96860.72;10468467;28;20123;-25
2023/09/07 22:43:23;;;;;;;2.47;1.65;;;;;;;21.40;60.99;96852.25;10458844;28;20322;-25
2023/09/07 22:48:24;;;;;;;3.78;2.40;;;;;;;21.44;61.12;96846.28;10461782;28;20021;-24
2023/09/07 22:53:25;;;;;;;4.50;3.80;;;;;;;21.47;61.10;96850.50;10449653;28;20541;-25
2023/09/07 22:58:25;;;;;;;9.10;4.80;;;;;;;21.48;61.66;96853.00;10468993;28;20287;-25
2023/09/07 23:03:26;;;;;;;4.60;4.03;;;;;;;21.47;61.19;96846.22;10450830;28;20029;-25
2023/09/07 23:08:30;;;;;;;7.30;5.00;;;;;;;21.47;61.63;96850.50;10452326;28;20499;-25
2023/09/07 23:13:34;;;;;;;5.25;4.75;;;;;;;21.47;61.12;96856.41;10452058;28;20036;-25
2023/09/07 23:18:35;;;;;;;4.28;3.85;;;;;;;21.45;61.05;96853.06;10461868;28;20033;-25